CheckWX is a tool to help pilots better visualize weather data.  It is not intended as a substitute for an official pre-flight weather briefing.

13:38:52 UTC

KMAO METAR
Marion County Airport
Marion, South Carolina, USA
Current

24 mins ago

KMAO 031315Z AUTO 34003KT 10SM CLR 27/24 A2997 RMK AO2
Observed
Jul-3 @ 13:15 UTC
Wind
  • 340° at 3 KTS
Visibility
10 SM
Flight Rules
VFR
Cloud Levels
  • Clear skies
Temperature
27°C / 81°F
Dewpoint
24°C / 75°F
Humidity
84%
Altimeter
29.97" Hg
Pressure
1014.92 hPa
Previous

44 mins ago

KMAO 031255Z AUTO 32004KT 10SM CLR 26/23 A2996 RMK AO2
Observed
Jul-3 @ 12:55 UTC
Wind
  • 320° at 4 KTS
Visibility
10 SM
Flight Rules
VFR
Cloud Levels
  • Clear skies
Temperature
26°C / 79°F
Dewpoint
23°C / 73°F
Humidity
84%
Altimeter
29.96" Hg
Pressure
1014.52 hPa
Previous

1 hour ago

KMAO 031235Z AUTO 31004KT 10SM CLR 26/23 A2996 RMK AO2
Observed
Jul-3 @ 12:35 UTC
Wind
  • 310° at 4 KTS
Visibility
10 SM
Flight Rules
VFR
Cloud Levels
  • Clear skies
Temperature
26°C / 79°F
Dewpoint
23°C / 73°F
Humidity
84%
Altimeter
29.96" Hg
Pressure
1014.52 hPa